Minamitorishima, Japan
Current Conditions -  °F | °C
As of 3:00 AM on Friday 31 Oct 2014 (Local Time) from RJAW Reporting Station
Broken Clouds Broken Clouds  
Wind Chill: 75°   Ceiling: 1000
Heat Index: 75°   Visibility: 6mi
Dew Point: 72°   Wind: 15mph
Humidity: 89%   Direction: 80°E
Pressure: 29.94"   Gusts: NA
Location:  24.3°N, 153.97°E
Report Text: RJAW 301800Z 08013KT 9999 BKN010 24/22 Q1014 RMK 5CU010 A2997
Loading
Personal Weather Stations






























Interactive Weather Map
Tropical Storm Tracking
New forecast layout! Learn more

10-Day Weather Forecast

Advertisements
Track Severe Weather on mobile